Time;durP1;ratioP1;P1;durP2;ratioP2;P2;SDS_P1;SDS_P2;PMS_P1;PMS_P2;Temp;Humidity;BMP_temperature;BMP_pressure;BME280_temperature;BME280_humidity;BME280_pressure;Samples;Min_cycle;Max_cycle;Signal;HPM_P1;HPM_P2
2024/02/29 00:00:23;;;;;;;29.33;18.90;;;;;21.60;100642.00;;;;2049548;28;20267;-68
2024/02/29 00:01:24;;;;;;;26.90;18.83;;;;;21.60;100653.00;;;;2045275;28;20219;-68
2024/02/29 00:02:24;;;;;;;31.23;20.50;;;;;21.60;100651.00;;;;2054163;28;20687;-68
2024/02/29 00:03:24;;;;;;;29.00;18.87;;;;;21.60;100651.00;;;;2055903;28;20262;-68
2024/02/29 00:04:26;;;;;;;29.10;18.80;;;;;21.60;100646.00;;;;2053658;28;20215;-68
2024/02/29 00:05:26;;;;;;;29.42;18.77;;;;;21.60;100643.00;;;;2055670;28;20627;-68
2024/02/29 00:06:26;;;;;;;28.13;18.37;;;;;21.60;100643.00;;;;2046033;28;20232;-68
2024/02/29 00:07:26;;;;;;;29.13;18.83;;;;;21.60;100637.00;;;;2054697;28;20231;-68
2024/02/29 00:08:27;;;;;;;30.47;20.57;;;;;21.60;100636.00;;;;2055496;28;20244;-68
2024/02/29 00:09:27;;;;;;;30.67;19.00;;;;;21.60;100638.00;;;;2054205;28;20215;-68
2024/02/29 00:10:28;;;;;;;25.47;17.03;;;;;21.50;100637.00;;;;2055431;28;20223;-68
2024/02/29 00:11:29;;;;;;;23.33;17.75;;;;;21.50;100627.00;;;;2045033;28;20248;-68
2024/02/29 00:12:29;;;;;;;27.03;18.10;;;;;21.60;100632.00;;;;2051736;28;20218;-68
2024/02/29 00:13:29;;;;;;;27.70;18.87;;;;;21.50;100627.00;;;;2050439;28;20215;-68
2024/02/29 00:14:30;;;;;;;24.27;16.80;;;;;21.60;100638.00;;;;2054261;28;20211;-68
2024/02/29 00:15:30;;;;;;;28.37;18.40;;;;;21.60;100634.00;;;;2055166;28;20219;-68
2024/02/29 00:16:31;;;;;;;24.03;16.50;;;;;21.60;100630.00;;;;2044633;28;20235;-68
2024/02/29 00:17:31;;;;;;;33.90;17.30;;;;;21.50;100643.00;;;;2055693;28;20674;-68
2024/02/29 00:18:32;;;;;;;30.13;18.60;;;;;21.60;100632.00;;;;2055574;28;21178;-68
2024/02/29 00:19:32;;;;;;;24.80;16.97;;;;;21.50;100630.00;;;;2054945;28;20725;-68
2024/02/29 00:20:35;;;;;;;25.10;17.33;;;;;21.50;100634.00;;;;2055595;28;20202;-68
2024/02/29 00:21:35;;;;;;;24.27;17.17;;;;;21.50;100632.00;;;;2044396;28;20216;-68
2024/02/29 00:22:36;;;;;;;22.90;16.10;;;;;21.50;100627.00;;;;2054072;28;20219;-68
2024/02/29 00:23:37;;;;;;;21.57;15.93;;;;;21.50;100628.00;;;;2054211;28;20227;-68
2024/02/29 00:24:37;;;;;;;25.00;16.30;;;;;21.50;100630.00;;;;2050759;28;20624;-68
2024/02/29 00:25:37;;;;;;;28.20;17.67;;;;;21.50;100630.00;;;;2051871;28;20220;-68
2024/02/29 00:26:37;;;;;;;23.17;15.50;;;;;21.50;100630.00;;;;2044370;28;20238;-68
2024/02/29 00:27:38;;;;;;;24.53;16.00;;;;;21.50;100625.00;;;;2055741;28;20223;-68
2024/02/29 00:28:38;;;;;;;20.50;14.80;;;;;21.50;100626.00;;;;2051493;28;20227;-68
2024/02/29 00:29:39;;;;;;;23.70;16.33;;;;;21.50;100625.00;;;;2051476;28;20223;-68
2024/02/29 00:30:39;;;;;;;24.80;16.30;;;;;21.50;100623.00;;;;2055009;28;20219;-68
2024/02/29 00:31:46;;;;;;;23.97;15.33;;;;;21.50;100627.00;;;;2043360;28;20215;-68
2024/02/29 00:32:46;;;;;;;21.98;15.25;;;;;21.50;100618.00;;;;2055558;28;20207;-68
2024/02/29 00:33:47;;;;;;;23.13;14.83;;;;;21.50;100611.00;;;;2052125;28;20290;-68
2024/02/29 00:34:47;;;;;;;22.80;16.23;;;;;21.50;100630.00;;;;2055242;28;20762;-68
2024/02/29 00:35:47;;;;;;;20.50;14.80;;;;;21.50;100605.00;;;;2051439;28;20791;-68
2024/02/29 00:36:48;;;;;;;23.43;14.13;;;;;21.40;100614.00;;;;2043953;28;20262;-68
2024/02/29 00:37:48;;;;;;;22.10;15.20;;;;;21.40;100615.00;;;;2054248;28;20216;-68
2024/02/29 00:38:48;;;;;;;20.50;14.43;;;;;21.40;100618.00;;;;2055638;28;20250;-68
2024/02/29 00:39:49;;;;;;;18.90;13.77;;;;;21.40;100611.00;;;;2055477;28;20208;-68
2024/02/29 00:40:49;;;;;;;23.63;14.70;;;;;21.40;100611.00;;;;2053362;28;20207;-68
2024/02/29 00:41:49;;;;;;;20.57;14.23;;;;;21.40;100614.00;;;;2045871;28;20207;-68
2024/02/29 00:42:50;;;;;;;20.00;13.33;;;;;21.40;100611.00;;;;2054792;28;20218;-68
2024/02/29 00:43:50;;;;;;;23.33;14.23;;;;;21.40;100616.00;;;;2055620;28;20230;-68
2024/02/29 00:44:50;;;;;;;19.30;12.97;;;;;21.40;100602.00;;;;2054386;28;20208;-68
2024/02/29 00:45:52;;;;;;;18.60;13.33;;;;;21.40;100609.00;;;;2055412;28;20218;-68
2024/02/29 00:46:52;;;;;;;18.33;13.10;;;;;21.40;100608.00;;;;2045870;28;20274;-68
2024/02/29 00:47:54;;;;;;;21.10;13.93;;;;;21.40;100606.00;;;;2054768;28;20629;-68
2024/02/29 00:48:55;;;;;;;23.02;14.00;;;;;21.40;100599.00;;;;2055567;28;20220;-68
2024/02/29 00:49:55;;;;;;;18.50;13.13;;;;;21.40;100602.00;;;;2052317;28;20277;-68
2024/02/29 00:50:55;;;;;;;19.13;13.53;;;;;21.40;100596.00;;;;2053387;28;20203;-68
2024/02/29 00:51:56;;;;;;;20.90;14.07;;;;;21.40;100598.00;;;;2043997;28;20246;-68
2024/02/29 00:52:56;;;;;;;21.70;14.30;;;;;21.40;100592.00;;;;2056908;28;20211;-68
2024/02/29 00:53:56;;;;;;;19.50;12.10;;;;;21.40;100592.00;;;;2057213;28;20211;-68
2024/02/29 00:54:57;;;;;;;18.43;12.63;;;;;21.40;100595.00;;;;2050682;28;20212;-68
2024/02/29 00:55:57;;;;;;;17.70;12.87;;;;;21.40;100587.00;;;;2055325;28;20208;-68
2024/02/29 00:56:57;;;;;;;17.97;11.70;;;;;21.40;100594.00;;;;2046266;28;20747;-68
2024/02/29 00:57:58;;;;;;;16.00;11.70;;;;;21.40;100582.00;;;;2056475;28;20607;-67
2024/02/29 00:58:58;;;;;;;19.03;12.93;;;;;21.40;100590.00;;;;2056265;28;20790;-67
2024/02/29 00:59:58;;;;;;;18.10;11.73;;;;;21.40;100586.00;;;;2056022;28;20750;-67
2024/02/29 01:01:00;;;;;;;17.20;11.30;;;;;21.30;100593.00;;;;2057046;28;20706;-68
2024/02/29 01:02:00;;;;;;;19.08;12.57;;;;;21.30;100593.00;;;;2042650;28;20208;-67
2024/02/29 01:03:01;;;;;;;17.70;11.17;;;;;21.30;100591.00;;;;2057184;28;20223;-67
2024/02/29 01:04:01;;;;;;;16.47;11.97;;;;;21.30;100591.00;;;;2056862;28;20212;-67
2024/02/29 01:05:01;;;;;;;17.70;12.17;;;;;21.40;100589.00;;;;2056320;28;20226;-68
2024/02/29 01:06:04;;;;;;;17.50;12.13;;;;;21.40;100579.00;;;;2057032;28;20226;-68
2024/02/29 01:07:04;;;;;;;16.13;11.30;;;;;21.30;100587.00;;;;2047315;28;20364;-68
2024/02/29 01:08:05;;;;;;;17.90;12.43;;;;;21.40;100579.00;;;;2054304;28;20960;-68
2024/02/29 01:09:05;;;;;;;18.50;11.30;;;;;21.30;100589.00;;;;2048390;28;20576;-68
2024/02/29 01:10:08;;;;;;;16.07;11.30;;;;;21.30;100580.00;;;;2047288;28;20547;-68
2024/02/29 01:11:09;;;;;;;15.75;11.60;;;;;21.30;100582.00;;;;2046623;28;20216;-68
2024/02/29 01:12:09;;;;;;;14.77;10.67;;;;;21.30;100580.00;;;;2055726;28;20229;-68
2024/02/29 01:13:09;;;;;;;21.73;12.20;;;;;21.40;100580.00;;;;2056216;28;20207;-68
2024/02/29 01:14:10;;;;;;;16.00;11.27;;;;;21.30;100576.00;;;;2056031;28;20637;-68
2024/02/29 01:15:12;;;;;;;15.77;10.77;;;;;21.30;100357.00;;;;2055977;28;20218;-68
2024/02/29 01:16:12;;;;;;;15.43;11.07;;;;;21.30;100567.00;;;;2039435;28;20257;-68
2024/02/29 01:17:12;;;;;;;13.57;9.70;;;;;21.30;100567.00;;;;2056235;28;20717;-68
2024/02/29 01:18:13;;;;;;;15.03;9.60;;;;;21.30;100560.00;;;;2057113;28;20212;-68
2024/02/29 01:19:13;;;;;;;16.30;11.37;;;;;21.30;100559.00;;;;2056845;28;20223;-68
2024/02/29 01:20:14;;;;;;;14.70;10.30;;;;;21.00;100549.00;;;;2055953;28;20219;-68
2024/02/29 01:21:14;;;;;;;15.97;10.33;;;;;21.30;100557.00;;;;2047139;28;20218;-68
2024/02/29 01:22:14;;;;;;;15.03;10.40;;;;;21.30;100560.00;;;;2055510;28;20707;-68
2024/02/29 01:23:15;;;;;;;14.77;10.90;;;;;21.30;100555.00;;;;2056986;28;20806;-68
2024/02/29 01:24:15;;;;;;;13.00;9.00;;;;;21.30;100557.00;;;;2054623;28;20656;-68
2024/02/29 01:25:15;;;;;;;15.27;10.17;;;;;21.20;100558.00;;;;2054368;28;20211;-68
2024/02/29 01:26:15;;;;;;;16.63;10.80;;;;;21.20;100547.00;;;;2047153;28;20359;-67
2024/02/29 01:27:16;;;;;;;12.70;9.47;;;;;21.30;100555.00;;;;2056006;28;20216;-67
2024/02/29 01:28:16;;;;;;;14.73;9.70;;;;;21.30;100553.00;;;;2056908;28;20239;-67
2024/02/29 01:29:16;;;;;;;14.90;9.40;;;;;21.30;100546.00;;;;2055460;28;20207;-67
2024/02/29 01:30:17;;;;;;;12.67;9.10;;;;;21.30;100548.00;;;;2056808;28;20218;-67
2024/02/29 01:31:17;;;;;;;15.73;10.40;;;;;21.30;100548.00;;;;2046776;28;20266;-67
2024/02/29 01:32:18;;;;;;;16.33;10.13;;;;;21.30;100545.00;;;;2047689;28;20724;-67
2024/02/29 01:33:18;;;;;;;12.20;8.97;;;;;21.30;100548.00;;;;2056527;28;20675;-67
2024/02/29 01:34:19;;;;;;;11.83;8.80;;;;;21.20;100547.00;;;;2052727;28;20693;-67
2024/02/29 01:35:19;;;;;;;12.67;8.87;;;;;21.30;100532.00;;;;2056811;28;20230;-67
2024/02/29 01:36:20;;;;;;;13.00;9.43;;;;;21.20;100538.00;;;;2044590;28;20236;-67
2024/02/29 01:37:20;;;;;;;13.20;9.63;;;;;21.20;100325.00;;;;2048130;28;20218;-67
2024/02/29 01:38:20;;;;;;;14.20;9.60;;;;;21.20;100527.00;;;;2048087;28;20216;-67
2024/02/29 01:39:21;;;;;;;13.30;9.13;;;;;21.20;100530.00;;;;2055529;28;20216;-67
2024/02/29 01:40:21;;;;;;;12.07;8.67;;;;;21.20;100534.00;;;;2056245;28;20216;-67
2024/02/29 01:41:22;;;;;;;13.87;9.97;;;;;21.20;100495.00;;;;2045984;28;20207;-67
2024/02/29 01:42:22;;;;;;;13.37;9.07;;;;;21.20;100530.00;;;;2056979;28;20266;-67
2024/02/29 01:43:22;;;;;;;11.53;8.20;;;;;21.20;100532.00;;;;2055921;28;20227;-67
2024/02/29 01:44:23;;;;;;;11.60;8.30;;;;;21.20;100529.00;;;;2056363;28;20251;-67
2024/02/29 01:45:23;;;;;;;16.40;9.40;;;;;21.20;100519.00;;;;2056897;28;20234;-67
2024/02/29 01:46:23;;;;;;;12.23;8.50;;;;;21.20;100535.00;;;;2042759;28;20597;-67
2024/02/29 01:47:24;;;;;;;13.53;9.00;;;;;21.20;100526.00;;;;2056369;28;20601;-67
2024/02/29 01:48:24;;;;;;;14.63;9.10;;;;;21.20;100524.00;;;;2055211;28;20886;-67
2024/02/29 01:49:25;;;;;;;12.93;8.30;;;;;21.20;100520.00;;;;2056333;28;20223;-67
2024/02/29 01:50:26;;;;;;;12.53;9.10;;;;;21.20;100455.00;;;;2055717;28;20222;-67
2024/02/29 01:51:26;;;;;;;12.10;8.90;;;;;21.20;100517.00;;;;2046074;28;20587;-67
2024/02/29 01:52:26;;;;;;;11.63;8.60;;;;;21.20;100516.00;;;;2048122;28;20448;-67
2024/02/29 01:53:27;;;;;;;11.10;8.13;;;;;21.20;100526.00;;;;2047580;28;20333;-67
2024/02/29 01:54:27;;;;;;;14.87;9.17;;;;;21.20;100527.00;;;;2039832;29;20276;-67
2024/02/29 01:55:27;;;;;;;13.40;8.57;;;;;21.20;100482.00;;;;2039486;29;20213;-67
2024/02/29 01:56:27;;;;;;;11.93;8.57;;;;;21.20;100515.00;;;;2038213;28;20239;-67
2024/02/29 01:57:28;;;;;;;11.40;8.50;;;;;21.20;100525.00;;;;2047817;28;20216;-67
2024/02/29 01:58:28;;;;;;;12.87;7.77;;;;;21.20;100521.00;;;;2039891;29;20225;-67
2024/02/29 01:59:28;;;;;;;13.23;8.67;;;;;21.20;100516.00;;;;2032244;29;20214;-67
2024/02/29 02:00:29;;;;;;;12.40;8.73;;;;;21.20;100517.00;;;;2029265;29;20214;-67
2024/02/29 02:01:29;;;;;;;12.20;8.60;;;;;21.20;100514.00;;;;2022625;29;20222;-67
2024/02/29 02:02:29;;;;;;;13.17;8.37;;;;;21.20;100512.00;;;;2031855;29;20577;-67
2024/02/29 02:03:30;;;;;;;10.90;7.73;;;;;21.20;100516.00;;;;2033264;29;20212;-67
2024/02/29 02:04:30;;;;;;;10.77;7.07;;;;;21.10;100473.00;;;;2047433;28;20224;-67
2024/02/29 02:05:30;;;;;;;10.77;7.53;;;;;21.10;100501.00;;;;2047022;28;20244;-67
2024/02/29 02:06:31;;;;;;;11.90;8.20;;;;;21.10;100492.00;;;;2038525;28;20224;-67
2024/02/29 02:07:32;;;;;;;10.90;7.10;;;;;21.20;100506.00;;;;2055110;28;20224;-67
2024/02/29 02:08:33;;;;;;;11.07;7.32;;;;;21.20;100506.00;;;;2048122;28;20641;-67
2024/02/29 02:09:34;;;;;;;10.07;6.83;;;;;21.10;100505.00;;;;2047520;28;20213;-67
2024/02/29 02:10:35;;;;;;;14.00;7.57;;;;;21.10;100498.00;;;;2056443;28;20220;-67
2024/02/29 02:11:35;;;;;;;11.53;7.77;;;;;21.10;100507.00;;;;2046815;28;20254;-67
2024/02/29 02:12:36;;;;;;;10.17;6.93;;;;;21.10;100507.00;;;;2055137;28;20212;-67
2024/02/29 02:13:36;;;;;;;10.97;7.77;;;;;21.10;100501.00;;;;2056552;28;20212;-67
2024/02/29 02:14:39;;;;;;;10.83;7.03;;;;;21.10;100512.00;;;;2055137;28;20689;-67
2024/02/29 02:15:40;;;;;;;11.15;7.82;;;;;21.10;100497.00;;;;2056583;28;20700;-67
2024/02/29 02:16:40;;;;;;;11.13;7.20;;;;;21.10;100501.00;;;;2045597;28;20216;-67
2024/02/29 02:17:41;;;;;;;10.40;6.40;;;;;21.10;100499.00;;;;2056013;28;20278;-67
2024/02/29 02:18:42;;;;;;;9.90;6.80;;;;;21.20;100503.00;;;;2056006;28;20222;-67
2024/02/29 02:19:42;;;;;;;12.10;6.97;;;;;21.10;100497.00;;;;2055618;28;20460;-67
2024/02/29 02:20:42;;;;;;;10.90;7.10;;;;;21.10;100492.00;;;;2047751;28;20776;-67
2024/02/29 02:21:43;;;;;;;10.47;7.20;;;;;21.10;100481.00;;;;2037116;28;20763;-67
2024/02/29 02:22:43;;;;;;;10.80;7.20;;;;;21.10;100445.00;;;;2056389;28;20664;-67
2024/02/29 02:23:43;;;;;;;10.17;7.20;;;;;21.10;100497.00;;;;2055360;28;20215;-67
2024/02/29 02:24:44;;;;;;;9.50;6.40;;;;;21.10;100494.00;;;;2053290;28;20227;-67
2024/02/29 02:25:44;;;;;;;10.03;6.70;;;;;21.10;100492.00;;;;2056570;28;20212;-67
2024/02/29 02:26:44;;;;;;;8.50;6.70;;;;;21.10;100487.00;;;;2045947;28;20632;-67
2024/02/29 02:27:45;;;;;;;9.90;6.40;;;;;21.10;100494.00;;;;2056494;28;20926;-67
2024/02/29 02:28:45;;;;;;;11.43;7.03;;;;;21.10;100494.00;;;;2053778;28;20636;-67
2024/02/29 02:29:45;;;;;;;10.73;6.47;;;;;21.10;100495.00;;;;2052349;28;20678;-67
2024/02/29 02:30:46;;;;;;;9.77;6.33;;;;;21.10;100491.00;;;;2056144;28;20689;-67
2024/02/29 02:31:46;;;;;;;10.03;7.60;;;;;21.10;100485.00;;;;2045292;28;20219;-67
2024/02/29 02:32:47;;;;;;;9.93;6.60;;;;;21.10;100489.00;;;;2056222;28;20223;-67
2024/02/29 02:33:47;;;;;;;10.40;6.20;;;;;21.10;100495.00;;;;2055800;28;20224;-67
2024/02/29 02:34:47;;;;;;;8.20;6.00;;;;;21.10;100486.00;;;;2055600;28;20235;-67
2024/02/29 02:35:48;;;;;;;8.50;5.93;;;;;21.10;100473.00;;;;2055609;28;20234;-68
2024/02/29 02:36:48;;;;;;;7.83;5.40;;;;;21.00;100480.00;;;;2046501;28;20215;-67
2024/02/29 02:37:49;;;;;;;10.07;6.70;;;;;21.00;100478.00;;;;2055996;28;20222;-67
2024/02/29 02:38:49;;;;;;;10.17;6.63;;;;;21.00;100471.00;;;;2055927;28;20223;-67
2024/02/29 02:39:49;;;;;;;8.07;5.67;;;;;21.00;100462.00;;;;2056296;28;20451;-67
2024/02/29 02:40:50;;;;;;;9.73;5.77;;;;;21.00;100465.00;;;;2045412;28;20953;-67
2024/02/29 02:41:50;;;;;;;10.00;6.33;;;;;21.00;100466.00;;;;2037845;28;20679;-67
2024/02/29 02:42:50;;;;;;;8.67;5.77;;;;;21.00;100458.00;;;;2055801;28;20745;-67
2024/02/29 02:43:51;;;;;;;8.83;6.20;;;;;21.00;100449.00;;;;2055130;28;20222;-67
2024/02/29 02:44:52;;;;;;;8.30;6.00;;;;;21.10;100460.00;;;;2055435;28;20208;-67
2024/02/29 02:45:52;;;;;;;7.90;5.53;;;;;21.10;100466.00;;;;2054924;28;20211;-67
2024/02/29 02:46:53;;;;;;;8.90;5.30;;;;;21.00;100460.00;;;;2046616;28;20218;-67
2024/02/29 02:47:53;;;;;;;8.33;5.90;;;;;21.00;100460.00;;;;2055350;28;20250;-67
2024/02/29 02:48:53;;;;;;;8.87;5.73;;;;;21.10;100461.00;;;;2055921;28;20219;-67
2024/02/29 02:49:54;;;;;;;9.00;5.33;;;;;21.00;100455.00;;;;2056147;28;20257;-67
2024/02/29 02:50:54;;;;;;;8.83;6.33;;;;;21.00;100454.00;;;;2054722;28;20208;-67
2024/02/29 02:51:54;;;;;;;8.43;5.87;;;;;21.00;100456.00;;;;2046418;28;20328;-67
2024/02/29 02:52:55;;;;;;;8.30;6.10;;;;;21.00;100458.00;;;;2055164;28;20223;-67
2024/02/29 02:53:55;;;;;;;7.67;5.50;;;;;21.00;100452.00;;;;2056208;28;20706;-67
2024/02/29 02:54:55;;;;;;;7.77;5.23;;;;;21.00;100451.00;;;;2055733;28;20699;-67
2024/02/29 02:55:56;;;;;;;8.70;5.83;;;;;21.00;100451.00;;;;2055542;28;20805;-67
2024/02/29 02:56:56;;;;;;;8.57;6.00;;;;;21.00;100445.00;;;;2045254;28;20589;-67
2024/02/29 02:57:56;;;;;;;8.73;5.70;;;;;21.00;100436.00;;;;2055416;28;20864;-67
2024/02/29 02:58:57;;;;;;;8.03;5.70;;;;;21.00;100439.00;;;;2056149;28;20718;-67
2024/02/29 02:59:57;;;;;;;7.20;5.10;;;;;21.00;100432.00;;;;2054901;28;20679;-67
2024/02/29 03:00:57;;;;;;;7.37;5.53;;;;;21.00;100435.00;;;;2056087;28;20594;-67
2024/02/29 03:01:58;;;;;;;6.90;5.00;;;;;21.00;100358.00;;;;2046213;28;20652;-67
2024/02/29 03:03:00;;;;;;;7.73;5.47;;;;;21.00;100433.00;;;;2053960;28;20753;-67
2024/02/29 03:04:00;;;;;;;8.85;5.72;;;;;21.00;100431.00;;;;2054221;28;20220;-68
2024/02/29 03:05:00;;;;;;;7.57;5.30;;;;;21.00;100434.00;;;;2050158;28;20213;-68
2024/02/29 03:06:01;;;;;;;8.50;5.40;;;;;21.00;100432.00;;;;2055358;28;20211;-68
2024/02/29 03:07:02;;;;;;;6.70;5.60;;;;;21.00;100428.00;;;;2044350;28;20235;-68
2024/02/29 03:08:03;;;;;;;7.73;5.13;;;;;20.90;100432.00;;;;2056187;28;20215;-68
2024/02/29 03:09:04;;;;;;;9.15;5.45;;;;;20.90;100426.00;;;;2056017;28;20224;-68
2024/02/29 03:10:08;;;;;;;8.05;5.35;;;;;20.90;100418.00;;;;2052197;28;20215;-68
2024/02/29 03:11:09;;;;;;;8.00;5.15;;;;;20.90;100418.00;;;;2046333;28;20223;-68
2024/02/29 03:12:10;;;;;;;7.17;5.17;;;;;21.00;100414.00;;;;2054899;28;20232;-67
2024/02/29 03:13:10;;;;;;;7.07;4.60;;;;;21.00;100422.00;;;;2055501;28;20211;-67
2024/02/29 03:14:10;;;;;;;7.53;5.53;;;;;21.00;100424.00;;;;2054136;28;20455;-67
2024/02/29 03:15:11;;;;;;;6.90;4.73;;;;;21.00;100411.00;;;;2053274;28;20226;-67
2024/02/29 03:16:11;;;;;;;7.43;5.43;;;;;20.90;100415.00;;;;2045559;28;20228;-67
2024/02/29 03:17:11;;;;;;;8.70;5.10;;;;;20.90;100415.00;;;;2055540;28;20243;-67
2024/02/29 03:18:12;;;;;;;7.30;5.20;;;;;21.00;100407.00;;;;2056132;28;20216;-67
2024/02/29 03:19:12;;;;;;;7.67;5.17;;;;;21.00;100407.00;;;;2054172;28;20219;-67
2024/02/29 03:20:13;;;;;;;6.03;4.53;;;;;20.90;100412.00;;;;2053695;28;20223;-67
2024/02/29 03:21:14;;;;;;;7.30;5.33;;;;;20.90;100412.00;;;;2045714;28;20216;-67
2024/02/29 03:22:14;;;;;;;7.10;4.70;;;;;20.90;100405.00;;;;2055683;28;20455;-67
2024/02/29 03:23:15;;;;;;;7.03;4.90;;;;;20.90;100401.00;;;;2055935;28;20231;-67
2024/02/29 03:24:15;;;;;;;7.43;4.67;;;;;20.90;100402.00;;;;2054971;28;20694;-67
2024/02/29 03:25:16;;;;;;;7.33;4.90;;;;;20.90;100391.00;;;;2057978;28;20204;-67
2024/02/29 03:26:17;;;;;;;6.30;4.40;;;;;20.90;100398.00;;;;2045939;28;20252;-67
2024/02/29 03:27:18;;;;;;;7.43;4.63;;;;;20.90;100399.00;;;;2048092;28;20220;-67
2024/02/29 03:28:18;;;;;;;7.85;4.50;;;;;20.90;100391.00;;;;2055174;28;20815;-67
2024/02/29 03:29:18;;;;;;;7.90;5.07;;;;;20.90;100391.00;;;;2055519;28;20281;-67
2024/02/29 03:30:19;;;;;;;6.97;4.50;;;;;20.90;100388.00;;;;2056020;28;20254;-67
2024/02/29 03:31:19;;;;;;;7.17;4.60;;;;;20.90;100384.00;;;;2042338;28;20232;-67
2024/02/29 03:32:19;;;;;;;6.30;4.37;;;;;20.90;100386.00;;;;2055958;28;20664;-67
2024/02/29 03:33:20;;;;;;;5.30;4.30;;;;;20.90;100386.00;;;;2054302;28;20719;-67
2024/02/29 03:34:20;;;;;;;6.70;4.67;;;;;20.90;100384.00;;;;2055598;28;20220;-67
2024/02/29 03:35:20;;;;;;;6.30;4.23;;;;;20.90;100390.00;;;;2055983;28;20234;-67
2024/02/29 03:36:21;;;;;;;7.23;4.67;;;;;20.90;100386.00;;;;2042124;28;20220;-67
2024/02/29 03:37:21;;;;;;;6.70;4.50;;;;;20.90;100381.00;;;;2056004;28;20282;-67
2024/02/29 03:38:21;;;;;;;7.70;4.80;;;;;20.90;100373.00;;;;2051943;28;20311;-67
2024/02/29 03:39:22;;;;;;;8.80;4.90;;;;;20.90;100384.00;;;;2055979;28;20256;-67
2024/02/29 03:40:22;;;;;;;6.13;4.10;;;;;20.90;100371.00;;;;2053930;28;20227;-67
2024/02/29 03:41:22;;;;;;;5.70;3.90;;;;;20.90;100385.00;;;;2045907;28;20212;-67
2024/02/29 03:42:23;;;;;;;6.47;4.20;;;;;20.90;100379.00;;;;2054651;28;20219;-67
2024/02/29 03:43:23;;;;;;;5.87;4.40;;;;;20.90;100372.00;;;;2053887;28;20278;-67
2024/02/29 03:44:23;;;;;;;7.70;4.70;;;;;20.90;100378.00;;;;2042193;28;20238;-68
2024/02/29 03:45:24;;;;;;;7.20;4.40;;;;;20.90;100337.00;;;;2045850;28;20212;-67
2024/02/29 03:46:25;;;;;;;6.10;3.73;;;;;20.90;100364.00;;;;2046313;28;21160;-67
2024/02/29 03:47:25;;;;;;;6.63;4.50;;;;;20.90;100368.00;;;;2054881;28;20219;-67
2024/02/29 03:48:25;;;;;;;5.83;3.87;;;;;20.90;100360.00;;;;2055871;28;20463;-67
2024/02/29 03:49:26;;;;;;;5.80;4.13;;;;;20.90;100363.00;;;;2055981;28;20227;-67
2024/02/29 03:50:27;;;;;;;6.03;4.40;;;;;20.90;100344.00;;;;2054483;28;20310;-67
2024/02/29 03:51:27;;;;;;;6.10;4.20;;;;;20.90;100368.00;;;;2046006;28;20268;-67
2024/02/29 03:52:27;;;;;;;6.70;3.97;;;;;20.90;100358.00;;;;2055188;28;20223;-67
2024/02/29 03:53:27;;;;;;;5.23;4.00;;;;;20.80;100353.00;;;;2056043;28;20218;-67
2024/02/29 03:54:28;;;;;;;5.30;3.93;;;;;20.90;100355.00;;;;2054559;28;20247;-67
2024/02/29 03:55:28;;;;;;;5.90;4.10;;;;;20.90;100356.00;;;;2048650;28;20666;-67
2024/02/29 03:56:29;;;;;;;7.30;4.90;;;;;20.80;100357.00;;;;2045132;28;20247;-67
2024/02/29 03:57:29;;;;;;;5.07;3.67;;;;;20.90;100352.00;;;;2055001;28;20269;-67
2024/02/29 03:58:29;;;;;;;5.87;4.00;;;;;20.90;100342.00;;;;2055856;28;20943;-67
2024/02/29 03:59:31;;;;;;;6.43;3.73;;;;;20.90;100354.00;;;;2054894;28;20742;-67
2024/02/29 04:00:31;;;;;;;7.00;4.05;;;;;20.80;100349.00;;;;2055740;28;20294;-67
2024/02/29 04:01:32;;;;;;;5.20;3.87;;;;;20.80;100343.00;;;;2044943;28;20228;-67
2024/02/29 04:02:32;;;;;;;6.70;3.70;;;;;20.80;100345.00;;;;2054106;28;20219;-67
2024/02/29 04:03:32;;;;;;;5.77;3.63;;;;;20.80;100348.00;;;;2055832;28;20208;-67
2024/02/29 04:04:33;;;;;;;5.00;3.40;;;;;20.80;100346.00;;;;2054673;28;20254;-67
2024/02/29 04:05:34;;;;;;;7.50;4.20;;;;;20.90;100348.00;;;;2055144;28;20214;-67
2024/02/29 04:06:34;;;;;;;5.40;3.50;;;;;20.80;100348.00;;;;2044684;28;20795;-67
2024/02/29 04:07:41;;;;;;;6.40;4.17;;;;;20.80;100349.00;;;;2055603;28;20702;-67
2024/02/29 04:08:41;;;;;;;5.45;3.85;;;;;20.80;100356.00;;;;2055605;28;20229;-67
2024/02/29 04:09:42;;;;;;;6.10;3.93;;;;;20.80;100348.00;;;;2054814;28;22512;-67
2024/02/29 04:10:46;;;;;;;5.27;3.50;;;;;20.80;100346.00;;;;2055751;28;20220;-67
2024/02/29 04:11:46;;;;;;;6.05;4.13;;;;;20.80;100356.00;;;;2044777;28;20231;-67
2024/02/29 04:12:46;;;;;;;5.50;3.27;;;;;20.80;100352.00;;;;2055631;28;20220;-67
2024/02/29 04:13:47;;;;;;;5.27;3.37;;;;;20.80;100353.00;;;;2054676;28;20281;-67
2024/02/29 04:14:47;;;;;;;5.50;3.43;;;;;20.80;100336.00;;;;2055666;28;20263;-67
2024/02/29 04:15:48;;;;;;;5.40;3.33;;;;;20.80;100345.00;;;;2055645;28;20223;-67
2024/02/29 04:16:48;;;;;;;6.13;3.83;;;;;20.80;100343.00;;;;2045722;28;20218;-67
2024/02/29 04:17:49;;;;;;;5.17;3.53;;;;;20.80;100345.00;;;;2055884;28;20714;-67
2024/02/29 04:18:49;;;;;;;5.13;3.50;;;;;20.80;100351.00;;;;2054565;28;20708;-67
2024/02/29 04:19:50;;;;;;;5.47;3.90;;;;;20.80;100342.00;;;;2055918;28;20670;-67
2024/02/29 04:20:50;;;;;;;5.30;3.17;;;;;20.80;100340.00;;;;2055361;28;20215;-67
2024/02/29 04:21:50;;;;;;;5.37;3.63;;;;;20.80;100342.00;;;;2046158;28;20722;-67
2024/02/29 04:22:51;;;;;;;6.87;3.87;;;;;20.80;100351.00;;;;2055993;28;20218;-67
2024/02/29 04:23:51;;;;;;;6.13;3.80;;;;;20.80;100338.00;;;;2055008;28;20219;-67
2024/02/29 04:24:51;;;;;;;5.20;3.30;;;;;20.80;100347.00;;;;2055065;28;20242;-67
2024/02/29 04:25:52;;;;;;;5.63;3.60;;;;;20.80;100344.00;;;;2054508;28;20215;-67
2024/02/29 04:26:52;;;;;;;4.93;3.80;;;;;20.80;100339.00;;;;2042439;28;20316;-67
2024/02/29 04:27:52;;;;;;;5.40;3.43;;;;;20.80;100342.00;;;;2055502;28;20554;-67
2024/02/29 04:28:53;;;;;;;5.00;3.10;;;;;20.80;100341.00;;;;2055090;28;20594;-67
2024/02/29 04:29:53;;;;;;;5.47;3.70;;;;;20.80;100335.00;;;;2055580;28;20622;-67
2024/02/29 04:30:53;;;;;;;4.93;3.23;;;;;20.80;100330.00;;;;2054130;28;20211;-67
2024/02/29 04:31:54;;;;;;;6.30;4.00;;;;;20.80;100331.00;;;;2044341;28;20614;-67
2024/02/29 04:32:54;;;;;;;5.80;3.70;;;;;20.80;100325.00;;;;2053788;28;20593;-67
2024/02/29 04:33:54;;;;;;;4.40;3.10;;;;;20.80;100316.00;;;;2055701;28;20684;-67
2024/02/29 04:34:56;;;;;;;6.10;3.53;;;;;20.80;100336.00;;;;2046699;28;20749;-67
2024/02/29 04:35:56;;;;;;;5.70;3.65;;;;;20.80;100321.00;;;;2046078;28;20211;-67
2024/02/29 04:36:56;;;;;;;4.63;3.53;;;;;20.80;100323.00;;;;2044489;28;20208;-67
2024/02/29 04:37:57;;;;;;;5.70;3.60;;;;;20.70;100241.00;;;;2054851;28;20234;-67
2024/02/29 04:38:57;;;;;;;5.67;3.33;;;;;20.70;100311.00;;;;2055748;28;20211;-67
2024/02/29 04:39:58;;;;;;;4.80;3.30;;;;;20.70;100322.00;;;;2055463;28;20589;-67
2024/02/29 04:40:58;;;;;;;5.30;3.50;;;;;20.80;100322.00;;;;2053372;28;20221;-67
2024/02/29 04:41:58;;;;;;;4.80;3.17;;;;;20.80;100335.00;;;;2045184;28;20211;-67
2024/02/29 04:42:59;;;;;;;4.70;3.20;;;;;20.80;100315.00;;;;2054507;28;20205;-67
2024/02/29 04:43:59;;;;;;;4.83;3.40;;;;;20.80;100317.00;;;;2055610;28;20212;-67
2024/02/29 04:45:00;;;;;;;5.00;3.70;;;;;20.70;100246.00;;;;2054024;28;20489;-67
2024/02/29 04:46:01;;;;;;;5.20;3.30;;;;;20.70;100310.00;;;;2053226;28;20228;-67
2024/02/29 04:47:01;;;;;;;6.28;3.70;;;;;20.80;100308.00;;;;2045704;28;20235;-67
2024/02/29 04:48:02;;;;;;;5.43;3.70;;;;;20.80;100310.00;;;;2055265;28;20676;-67
2024/02/29 04:49:02;;;;;;;5.10;3.40;;;;;20.70;100273.00;;;;2055566;28;20302;-67
2024/02/29 04:50:04;;;;;;;5.10;3.13;;;;;20.70;100306.00;;;;2054591;28;20211;-67
2024/02/29 04:51:05;;;;;;;5.28;3.10;;;;;20.70;100304.00;;;;2054850;28;20204;-67
2024/02/29 04:52:05;;;;;;;5.80;3.50;;;;;20.70;100299.00;;;;2044910;28;20215;-67
2024/02/29 04:53:05;;;;;;;4.97;3.40;;;;;20.80;100305.00;;;;2055558;28;20235;-67
2024/02/29 04:54:06;;;;;;;4.53;3.00;;;;;20.70;100302.00;;;;2055148;28;20215;-67
2024/02/29 04:55:06;;;;;;;6.17;3.60;;;;;20.70;100294.00;;;;2054505;28;20208;-67
2024/02/29 04:56:07;;;;;;;4.87;3.57;;;;;20.70;100291.00;;;;2047481;28;20212;-67